Plainwell, MI (49080)

1:22 PM EDT on September 28, 2016 (GMT -0400)
Weather Coffee Shoppe - Otsego | | Change Station

Elev 722 ft 42.46 °N, 85.71 °W | Updated 15 seconds ago

Overcast
Overcast
60.5 °F
Feels Like 60.5 °F
N
0.0
Wind Variable Wind from East

Today
High -- | Low -- °F
--% Chance of Precip.
Yesterday
High -- | Low -- °F
Precip. -- in
Pressure 29.89 in
Visibility 10.0 miles
Clouds Overcast 10000 ft
Dew Point 53 °F
Humidity 78%
Rainfall 0.02 in
Snow Depth Not available.
7:36 AM 7:28 PM
Waning Crescent, 5% visible
METAR KAZO 281653Z 09005KT 10SM OVC100 15/08 A2989 RMK AO2 SLP122 T01500083
Pressure 29.89 in
Visibility 10.0 miles
Clouds Overcast 10000 ft
Dew Point 53 °F
Humidity 78%
Rainfall 0.02 in
Snow Depth Not available.
7:36 AM 7:28 PM
Waning Crescent, 5% visible
METAR KAZO 281653Z 09005KT 10SM OVC100 15/08 A2989 RMK AO2 SLP122 T01500083

10-Day Weather Forecast

Almanac

Astronomy

Sep. 28, 2016 Rise Set
Actual Time
Civil Twilight
Nautical Twilight
Astronomical Twilight
Moon
Length of Visible Light
Length of Day
Tomorrow will be .
, % of the Moon is Illuminated

Today's Extremes

State Highs State Lows

Community

WunderPhotos

Upload Photos

1,942,291 photos uploaded!

WunderBlog® & News

Nearby

Air Quality

  Air Quality AQ Index Pollutant
Not available.

Snow Depth

Station Depth Elevation

Earthquake Activity

City Distance Mag. Time & Date
Minimum magnitude displayed is 2.5.

Coastal Water Temperatures

Place Temperature

Stations

Nearby Weather Stations

Station Location Temp. Windchill Dew Point Humidity Wind Precip. Elev Updated Type
                   

Watches & Warnings

There are currently no watches in effect.